JST809 YBCS-YBSU
Flight info
| Callsign | JST809 |
|---|---|
| Flight time | N/A |
| Altitude | 37000 |
| Route | AKROM Y177 RUROX/N0358F190 W727 SUSGI W534 SEBVA |
| Aircraft | A320/M-SDE3FGHIRWY/LB1 |
Departure
| Time | 2026-04-28 06:18 |
|---|---|
| Airport | Cairns International Airport (YBCS) |
Arrival
| Time | N/A |
|---|---|
| Airport | Sunshine Coast Airport (YBSU) |
| Time | Latitude | Longitude | Altitude | Speed | Heading |
|---|---|---|---|---|---|
| 2026-04-28 05:43 | -16.87826 | 145.75315 | 17 ft | 0 kts | 68° |
| 2026-04-28 06:10 | -16.87835 | 145.75291 | 5 ft | 4 kts | 66° |
| 2026-04-28 06:10 | -16.87847 | 145.75266 | 17 ft | 4 kts | 63° |
| 2026-04-28 06:10 | -16.87859 | 145.75243 | 19 ft | 2 kts | 57° |
| 2026-04-28 06:10 | -16.87872 | 145.75224 | 17 ft | 4 kts | 45° |
| 2026-04-28 06:11 | -16.87892 | 145.75204 | 17 ft | 4 kts | 56° |
| 2026-04-28 06:11 | -16.87897 | 145.75196 | 16 ft | 0 kts | 68° |
| 2026-04-28 06:13 | -16.87896 | 145.75196 | 16 ft | 0 kts | 68° |
| 2026-04-28 06:14 | -16.87896 | 145.75197 | 16 ft | 1 kts | 68° |
| 2026-04-28 06:14 | -16.87880 | 145.75221 | 16 ft | 9 kts | 39° |
| 2026-04-28 06:14 | -16.87802 | 145.75196 | 16 ft | 16 kts | 335° |
| 2026-04-28 06:14 | -16.87687 | 145.75144 | 16 ft | 21 kts | 336° |
| 2026-04-28 06:15 | -16.87500 | 145.75075 | 16 ft | 31 kts | 338° |
| 2026-04-28 06:15 | -16.87337 | 145.74989 | 16 ft | 23 kts | 313° |
| 2026-04-28 06:15 | -16.87243 | 145.74851 | 16 ft | 24 kts | 333° |
| 2026-04-28 06:15 | -16.87096 | 145.74787 | 16 ft | 21 kts | 335° |
| 2026-04-28 06:16 | -16.87048 | 145.74705 | 18 ft | 10 kts | 251° |
| 2026-04-28 06:16 | -16.87051 | 145.74699 | 17 ft | 1 kts | 245° |
| 2026-04-28 06:17 | -16.87075 | 145.74647 | 15 ft | 10 kts | 238° |
| 2026-04-28 06:17 | -16.87107 | 145.74604 | 14 ft | 12 kts | 215° |
| 2026-04-28 06:18 | -16.87836 | 145.74921 | 19 ft | 112 kts | 156° |
| 2026-04-28 06:18 | -16.88695 | 145.75306 | 71 ft | 150 kts | 158° |
| 2026-04-28 06:18 | -16.89560 | 145.75872 | 753 ft | 150 kts | 133° |
| 2026-04-28 06:18 | -16.89995 | 145.76870 | 1461 ft | 157 kts | 104° |
| 2026-04-28 06:19 | -16.89943 | 145.78030 | 1972 ft | 176 kts | 78° |
| 2026-04-28 06:19 | -16.89152 | 145.79152 | 2332 ft | 207 kts | 43° |
| 2026-04-28 06:19 | -16.87969 | 145.80022 | 2876 ft | 213 kts | 41° |
| 2026-04-28 06:19 | -16.86769 | 145.80932 | 3546 ft | 213 kts | 43° |
| 2026-04-28 06:20 | -16.85579 | 145.81850 | 4204 ft | 212 kts | 44° |
| 2026-04-28 06:20 | -16.84676 | 145.83016 | 4824 ft | 204 kts | 73° |
| 2026-04-28 06:20 | -16.84586 | 145.84481 | 5164 ft | 213 kts | 114° |
| 2026-04-28 06:20 | -16.85539 | 145.85710 | 5525 ft | 232 kts | 144° |
| 2026-04-28 06:21 | -16.87004 | 145.86589 | 6032 ft | 252 kts | 153° |
| 2026-04-28 06:21 | -16.88618 | 145.87380 | 6789 ft | 260 kts | 154° |
| 2026-04-28 06:21 | -16.90276 | 145.88199 | 7541 ft | 266 kts | 153° |
| 2026-04-28 06:21 | -16.91936 | 145.89076 | 8361 ft | 270 kts | 151° |
| 2026-04-28 06:22 | -16.93611 | 145.90024 | 9148 ft | 277 kts | 150° |
| 2026-04-28 06:22 | -16.95307 | 145.91032 | 9883 ft | 284 kts | 149° |
| 2026-04-28 06:22 | -16.97045 | 145.92099 | 10335 ft | 300 kts | 149° |
| 2026-04-28 06:22 | -16.98908 | 145.93266 | 10552 ft | 323 kts | 148° |
| 2026-04-28 06:23 | -17.00875 | 145.94509 | 10969 ft | 336 kts | 149° |
| 2026-04-28 06:23 | -17.02894 | 145.95788 | 11573 ft | 342 kts | 149° |
| 2026-04-28 06:23 | -17.04949 | 145.97087 | 12198 ft | 348 kts | 149° |
| 2026-04-28 06:23 | -17.07035 | 145.98403 | 12813 ft | 353 kts | 150° |
| 2026-04-28 06:24 | -17.09152 | 145.99739 | 13423 ft | 358 kts | 150° |
| 2026-04-28 06:24 | -17.11296 | 146.01094 | 13991 ft | 363 kts | 150° |
| 2026-04-28 06:24 | -17.13473 | 146.02471 | 14544 ft | 367 kts | 151° |
| 2026-04-28 06:24 | -17.15664 | 146.03854 | 15111 ft | 370 kts | 151° |
| 2026-04-28 06:25 | -17.17878 | 146.05250 | 15682 ft | 373 kts | 151° |
| 2026-04-28 06:25 | -17.20113 | 146.06658 | 16219 ft | 376 kts | 152° |
| 2026-04-28 06:25 | -17.22332 | 146.08060 | 16761 ft | 380 kts | 151° |
| 2026-04-28 06:25 | -17.24631 | 146.09513 | 17313 ft | 383 kts | 152° |
| 2026-04-28 06:26 | -17.26859 | 146.10920 | 17833 ft | 386 kts | 152° |
| 2026-04-28 06:26 | -17.29134 | 146.12357 | 18354 ft | 389 kts | 152° |
| 2026-04-28 06:26 | -17.31466 | 146.13830 | 18822 ft | 392 kts | 152° |
| 2026-04-28 06:26 | -17.33807 | 146.15311 | 19306 ft | 395 kts | 152° |
| 2026-04-28 06:27 | -17.36169 | 146.16807 | 19796 ft | 397 kts | 152° |
| 2026-04-28 06:27 | -17.38541 | 146.18308 | 20296 ft | 400 kts | 152° |
| 2026-04-28 06:27 | -17.40926 | 146.19820 | 20787 ft | 402 kts | 152° |
| 2026-04-28 06:27 | -17.43328 | 146.21343 | 21273 ft | 405 kts | 152° |
| 2026-04-28 06:28 | -17.45746 | 146.22872 | 21744 ft | 407 kts | 152° |
| 2026-04-28 06:28 | -17.48177 | 146.24411 | 22218 ft | 410 kts | 152° |
| 2026-04-28 06:28 | -17.50619 | 146.25961 | 22687 ft | 412 kts | 152° |
| 2026-04-28 06:28 | -17.53077 | 146.27523 | 23149 ft | 415 kts | 152° |
| 2026-04-28 06:29 | -17.55554 | 146.29097 | 23599 ft | 417 kts | 152° |
| 2026-04-28 06:29 | -17.58046 | 146.30679 | 23990 ft | 420 kts | 152° |
| 2026-04-28 06:29 | -17.60552 | 146.32269 | 24367 ft | 423 kts | 152° |
| 2026-04-28 06:29 | -17.63073 | 146.33867 | 24730 ft | 425 kts | 153° |
| 2026-04-28 06:30 | -17.65611 | 146.35477 | 25104 ft | 428 kts | 153° |
| 2026-04-28 06:30 | -17.68165 | 146.37101 | 25469 ft | 431 kts | 153° |
| 2026-04-28 06:30 | -17.70736 | 146.38741 | 25843 ft | 433 kts | 153° |
| 2026-04-28 06:30 | -17.73318 | 146.40386 | 26216 ft | 436 kts | 153° |
| 2026-04-28 06:31 | -17.75916 | 146.42036 | 26581 ft | 438 kts | 153° |
| 2026-04-28 06:31 | -17.78535 | 146.43697 | 26945 ft | 441 kts | 153° |
| 2026-04-28 06:31 | -17.81168 | 146.45370 | 27312 ft | 443 kts | 153° |
| 2026-04-28 06:31 | -17.83775 | 146.47031 | 27661 ft | 446 kts | 153° |
| 2026-04-28 06:32 | -17.86430 | 146.48725 | 28037 ft | 449 kts | 153° |
| 2026-04-28 06:32 | -17.89107 | 146.50432 | 28410 ft | 451 kts | 153° |
| 2026-04-28 06:32 | -17.91799 | 146.52147 | 28774 ft | 454 kts | 153° |
| 2026-04-28 06:32 | -17.94503 | 146.53872 | 29133 ft | 456 kts | 153° |
| 2026-04-28 06:33 | -17.97224 | 146.55608 | 29501 ft | 459 kts | 153° |
| 2026-04-28 06:33 | -17.99963 | 146.57355 | 29863 ft | 461 kts | 153° |
| 2026-04-28 06:33 | -18.02713 | 146.59112 | 30190 ft | 464 kts | 153° |
| 2026-04-28 06:33 | -18.05479 | 146.60879 | 30491 ft | 466 kts | 153° |
| 2026-04-28 06:34 | -18.08253 | 146.62653 | 30827 ft | 467 kts | 153° |
| 2026-04-28 06:34 | -18.11022 | 146.64425 | 31264 ft | 466 kts | 153° |
| 2026-04-28 06:34 | -18.13792 | 146.66197 | 31703 ft | 465 kts | 153° |
| 2026-04-28 06:34 | -18.16549 | 146.67960 | 32135 ft | 464 kts | 153° |
| 2026-04-28 06:35 | -18.19303 | 146.69724 | 32568 ft | 463 kts | 154° |
| 2026-04-28 06:35 | -18.22050 | 146.71481 | 32992 ft | 462 kts | 154° |
| 2026-04-28 06:35 | -18.24798 | 146.73237 | 33431 ft | 462 kts | 154° |
| 2026-04-28 06:35 | -18.27545 | 146.74996 | 33854 ft | 461 kts | 154° |
| 2026-04-28 06:36 | -18.30281 | 146.76750 | 34251 ft | 461 kts | 154° |
| 2026-04-28 06:36 | -18.33013 | 146.78504 | 34606 ft | 460 kts | 154° |
| 2026-04-28 06:36 | -18.35750 | 146.80257 | 34952 ft | 460 kts | 154° |
| 2026-04-28 06:36 | -18.38500 | 146.81958 | 35292 ft | 458 kts | 155° |
| 2026-04-28 06:37 | -18.41239 | 146.83578 | 35640 ft | 457 kts | 156° |
| 2026-04-28 06:37 | -18.44021 | 146.85177 | 35986 ft | 456 kts | 157° |
| 2026-04-28 06:37 | -18.46808 | 146.86766 | 36308 ft | 455 kts | 157° |
| 2026-04-28 06:37 | -18.49589 | 146.88360 | 36633 ft | 454 kts | 156° |
| 2026-04-28 06:38 | -18.52356 | 146.89963 | 36935 ft | 454 kts | 156° |
| 2026-04-28 06:38 | -18.57899 | 146.93211 | 37039 ft | 458 kts | 156° |
| 2026-04-28 06:39 | -18.63463 | 146.96498 | 37036 ft | 458 kts | 156° |
| 2026-04-28 06:39 | -18.69025 | 146.99788 | 37031 ft | 458 kts | 156° |
| 2026-04-28 06:40 | -18.74592 | 147.03062 | 37027 ft | 458 kts | 156° |
| 2026-04-28 06:40 | -18.80159 | 147.06331 | 37030 ft | 458 kts | 156° |
| 2026-04-28 06:41 | -18.85728 | 147.09612 | 37051 ft | 458 kts | 156° |
| 2026-04-28 06:41 | -18.91299 | 147.12903 | 37056 ft | 458 kts | 156° |
| 2026-04-28 06:42 | -18.96868 | 147.16192 | 37059 ft | 459 kts | 156° |
| 2026-04-28 06:42 | -19.02434 | 147.19486 | 37061 ft | 458 kts | 156° |
| 2026-04-28 06:43 | -19.07996 | 147.22774 | 37062 ft | 458 kts | 156° |
| 2026-04-28 06:43 | -19.13564 | 147.26064 | 37059 ft | 458 kts | 155° |
| 2026-04-28 06:44 | -19.19127 | 147.29360 | 37058 ft | 458 kts | 155° |
| 2026-04-28 06:44 | -19.24687 | 147.32653 | 37059 ft | 458 kts | 155° |
| 2026-04-28 06:45 | -19.30246 | 147.35957 | 37058 ft | 458 kts | 155° |
| 2026-04-28 06:45 | -19.35803 | 147.39260 | 37060 ft | 458 kts | 155° |
| 2026-04-28 06:46 | -19.41332 | 147.42544 | 37065 ft | 459 kts | 155° |
| 2026-04-28 06:46 | -19.46899 | 147.45858 | 37062 ft | 459 kts | 155° |
| 2026-04-28 06:47 | -19.52469 | 147.49172 | 37065 ft | 459 kts | 155° |
| 2026-04-28 06:47 | -19.58042 | 147.52488 | 37064 ft | 460 kts | 155° |
| 2026-04-28 06:48 | -19.63618 | 147.55818 | 37063 ft | 460 kts | 155° |
| 2026-04-28 06:48 | -19.69189 | 147.59144 | 37063 ft | 460 kts | 155° |
| 2026-04-28 06:49 | -19.74766 | 147.62462 | 37059 ft | 460 kts | 155° |
| 2026-04-28 06:49 | -19.79402 | 147.65226 | 37062 ft | 460 kts | 155° |
| 2026-04-28 06:50 | -19.84985 | 147.68558 | 37061 ft | 460 kts | 154° |
| 2026-04-28 06:50 | -19.90564 | 147.71894 | 37063 ft | 460 kts | 154° |
| 2026-04-28 06:51 | -19.96148 | 147.75231 | 37065 ft | 461 kts | 154° |
| 2026-04-28 06:51 | -20.01729 | 147.78575 | 37065 ft | 461 kts | 154° |
| 2026-04-28 06:52 | -20.07313 | 147.81932 | 37068 ft | 461 kts | 154° |
| 2026-04-28 06:52 | -20.12895 | 147.85284 | 37065 ft | 461 kts | 154° |
| 2026-04-28 06:53 | -20.18485 | 147.88638 | 37069 ft | 461 kts | 154° |
| 2026-04-28 06:53 | -20.24079 | 147.91994 | 37073 ft | 462 kts | 154° |
| 2026-04-28 06:54 | -20.29677 | 147.95358 | 37073 ft | 462 kts | 154° |
| 2026-04-28 06:54 | -20.35235 | 147.98708 | 37076 ft | 462 kts | 154° |
| 2026-04-28 06:55 | -20.40838 | 148.02081 | 37083 ft | 463 kts | 154° |
| 2026-04-28 06:55 | -20.46442 | 148.05464 | 37084 ft | 463 kts | 154° |
| 2026-04-28 06:56 | -20.52042 | 148.08846 | 37084 ft | 463 kts | 154° |
| 2026-04-28 06:56 | -20.57652 | 148.12233 | 37082 ft | 463 kts | 154° |
| 2026-04-28 06:57 | -20.63259 | 148.15621 | 37088 ft | 463 kts | 154° |
| 2026-04-28 06:57 | -20.68865 | 148.19010 | 37086 ft | 463 kts | 153° |
| 2026-04-28 06:58 | -20.74469 | 148.22410 | 37088 ft | 463 kts | 153° |